14°C Temp
7°C Dewpoint
63% Humidity
Temperature
8 KM/H
5 MPH
4 KTS
250°
West South
West

Wind Speed
Clear
Conditions
Pressure 1033.92 (hPa) - 30.53 (in)
Visibility 6.2 (mi) - 10.0 (km)

Current Conditions
EGNJ
Location 20(mi)
Metar :EGNJ 260420Z AUTO 25004KT 9999 NCD 14/07 Q1034
Tue 26th May 04:20 am

Airport
  Metar Aviation API Data Provided by https://www.checkwx.com/ PHP scripts by weather34.com ©2020